Time;durP1;ratioP1;P1;durP2;ratioP2;P2;SDS_P1;SDS_P2;PMS_P1;PMS_P2;Temp;Humidity;BMP_temperature;BMP_pressure;BME280_temperature;BME280_humidity;BME280_pressure;Samples;Min_cycle;Max_cycle;Signal;HPM_P1;HPM_P2
2024/01/13 00:01:29;;;;;;;21.70;8.30;;;;;;;1.35;100.00;101950.72;5958784;29;20063;-70
2024/01/13 00:04:24;;;;;;;18.57;7.40;;;;;;;1.33;100.00;101941.25;5954933;29;20507;-70
2024/01/13 00:07:19;;;;;;;18.70;6.73;;;;;;;1.31;100.00;101932.59;5953538;29;20067;-72
2024/01/13 00:10:14;;;;;;;21.80;6.53;;;;;;;1.34;100.00;101930.72;5949367;29;20035;-70
2024/01/13 00:13:10;;;;;;;18.47;7.07;;;;;;;1.29;100.00;101931.81;5950076;29;20103;-71
2024/01/13 00:16:05;;;;;;;20.17;7.13;;;;;;;1.35;100.00;101934.19;5951474;29;20418;-71
2024/01/13 00:19:01;;;;;;;16.08;7.20;;;;;;;1.32;100.00;101935.16;5943662;29;20172;-71
2024/01/13 00:21:56;;;;;;;17.23;6.73;;;;;;;1.34;100.00;101942.94;5944775;29;20064;-70
2024/01/13 00:24:51;;;;;;;19.63;7.23;;;;;;;1.36;100.00;101930.69;5951054;29;21021;-70
2024/01/13 00:27:47;;;;;;;18.70;6.40;;;;;;;1.39;100.00;101930.53;5948021;29;20054;-69
2024/01/13 00:30:42;;;;;;;20.30;6.70;;;;;;;1.29;100.00;101918.75;5950498;29;20036;-72
2024/01/13 00:33:39;;;;;;;17.57;7.20;;;;;;;1.32;100.00;101914.25;5954635;29;20491;-69
2024/01/13 00:36:34;;;;;;;19.02;7.32;;;;;;;1.36;100.00;101917.63;5953115;29;20387;-71
2024/01/13 00:39:29;;;;;;;18.77;6.90;;;;;;;1.37;100.00;101914.06;5946117;29;20040;-70
2024/01/13 00:42:25;;;;;;;20.17;6.53;;;;;;;1.36;100.00;101918.44;5954685;29;20291;-70
2024/01/13 00:45:20;;;;;;;18.13;7.17;;;;;;;1.31;100.00;101915.16;5958367;29;20558;-72
2024/01/13 00:48:15;;;;;;;20.40;7.17;;;;;;;1.30;100.00;101899.56;5947486;29;20072;-71
2024/01/13 00:51:11;;;;;;;17.10;6.57;;;;;;;1.33;100.00;101909.88;5948662;29;20035;-71
2024/01/13 00:54:06;;;;;;;19.48;7.25;;;;;;;1.30;100.00;101899.56;5946313;29;20032;-71
2024/01/13 00:57:02;;;;;;;19.88;7.78;;;;;;;1.30;100.00;101899.56;5943082;29;20396;-70
2024/01/13 00:59:57;;;;;;;22.03;8.07;;;;;;;1.36;100.00;101904.56;5946962;29;20035;-70
2024/01/13 01:02:52;;;;;;;23.23;8.03;;;;;;;1.34;100.00;101906.34;5962022;29;20051;-71
2024/01/13 01:05:48;;;;;;;24.75;8.20;;;;;;;1.32;100.00;101900.34;5945922;29;20034;-71
2024/01/13 01:08:43;;;;;;;19.52;7.63;;;;;;;1.27;100.00;101889.22;5954099;29;20122;-71
2024/01/13 01:11:38;;;;;;;23.77;8.77;;;;;;;1.25;100.00;101891.88;5957619;29;20039;-69
2024/01/13 01:14:34;;;;;;;21.77;8.00;;;;;;;1.32;100.00;101892.50;5954058;29;20032;-70
2024/01/13 01:17:29;;;;;;;21.30;7.50;;;;;;;1.26;100.00;101888.34;5942035;29;20187;-70
2024/01/13 01:20:24;;;;;;;22.37;7.87;;;;;;;1.28;100.00;101890.94;5957499;29;20280;-69
2024/01/13 01:23:20;;;;;;;21.10;7.27;;;;;;;1.26;100.00;101887.50;5950604;29;20055;-71
2024/01/13 01:26:15;;;;;;;20.00;8.17;;;;;;;1.25;100.00;101875.38;5941301;29;20115;-71
2024/01/13 01:29:10;;;;;;;18.93;6.87;;;;;;;1.25;100.00;101875.38;5955831;29;20130;-71
2024/01/13 01:32:06;;;;;;;26.33;10.60;;;;;;;1.23;100.00;101877.16;5946918;29;20063;-72
2024/01/13 01:35:01;;;;;;;25.50;9.97;;;;;;;1.29;100.00;101876.94;5958144;29;20043;-71
2024/01/13 01:37:56;;;;;;;27.37;8.80;;;;;;;1.24;100.00;101871.03;5947538;29;20039;-71
2024/01/13 01:40:55;;;;;;;23.20;9.03;;;;;;;1.25;100.00;101864.91;5957298;29;20387;-72
2024/01/13 01:43:50;;;;;;;25.50;9.13;;;;;;;1.24;100.00;101863.19;5956772;29;20283;-71
2024/01/13 01:46:47;;;;;;;27.73;8.80;;;;;;;1.28;100.00;101870.03;5952858;29;20487;-71
2024/01/13 01:49:43;;;;;;;23.65;7.97;;;;;;;1.28;100.00;101859.59;5955310;29;20067;-72
2024/01/13 01:52:39;;;;;;;28.20;8.73;;;;;;;1.28;100.00;101849.13;5947778;29;20036;-71
2024/01/13 01:55:34;;;;;;;24.08;8.95;;;;;;;1.30;100.00;101852.53;5954827;29;20400;-71
2024/01/13 01:58:29;;;;;;;25.83;9.27;;;;;;;1.26;100.00;101841.34;5956328;29;20055;-71
2024/01/13 02:01:26;;;;;;;21.67;7.75;;;;;;;1.25;100.00;101833.56;5951407;29;20026;-71
2024/01/13 02:04:21;;;;;;;23.23;8.38;;;;;;;1.28;100.00;101826.44;5956216;29;20023;-70
2024/01/13 02:07:17;;;;;;;22.63;7.60;;;;;;;1.27;100.00;101831.75;5955507;29;20089;-71
2024/01/13 02:10:12;;;;;;;23.87;7.97;;;;;;;1.23;100.00;101814.47;5954286;29;20824;-70
2024/01/13 02:13:07;;;;;;;19.97;6.87;;;;;;;1.27;100.00;101816.06;5956588;29;20059;-70
2024/01/13 02:16:04;;;;;;;21.17;7.80;;;;;;;1.23;100.00;101817.09;5954026;29;20032;-71
2024/01/13 02:19:00;;;;;;;17.75;6.65;;;;;;;1.20;100.00;101808.47;5953790;29;20127;-71
2024/01/13 02:21:55;;;;;;;20.30;6.90;;;;;;;1.25;100.00;101817.91;5951074;29;20441;-71
2024/01/13 02:24:51;;;;;;;22.37;6.93;;;;;;;1.21;100.00;101806.72;5938835;29;20031;-71
2024/01/13 02:27:46;;;;;;;19.20;6.70;;;;;;;1.13;100.00;101793.97;5949860;29;20035;-70
2024/01/13 02:30:41;;;;;;;19.17;7.10;;;;;;;1.12;100.00;101799.22;5950496;29;20070;-72
2024/01/13 02:33:37;;;;;;;22.60;7.57;;;;;;;1.11;100.00;101800.97;5954653;29;20504;-71
2024/01/13 02:36:32;;;;;;;21.80;6.00;;;;;;;1.10;100.00;101786.22;5955628;29;20028;-71
2024/01/13 02:39:27;;;;;;;15.13;6.33;;;;;;;1.11;100.00;101781.88;5952136;29;20032;-71
2024/01/13 02:42:22;;;;;;;16.70;6.80;;;;;;;1.17;100.00;101795.53;5952681;29;20030;-71
2024/01/13 02:45:18;;;;;;;15.20;5.50;;;;;;;1.14;100.00;101785.19;5955510;29;20028;-71
2024/01/13 02:48:16;;;;;;;16.40;5.27;;;;;;;1.18;100.00;101788.53;5943207;29;20043;-70
2024/01/13 02:51:16;;;;;;;17.67;6.40;;;;;;;1.11;100.00;101767.03;5954542;29;20287;-70
2024/01/13 02:54:11;;;;;;;16.55;5.88;;;;;;;1.06;100.00;101760.31;5954753;29;20036;-71
2024/01/13 02:57:07;;;;;;;12.70;5.43;;;;;;;1.15;100.00;101765.16;5952627;29;20527;-70
2024/01/13 03:00:04;;;;;;;15.43;6.18;;;;;;;1.10;100.00;101754.91;5939839;29;20039;-71
2024/01/13 03:02:59;;;;;;;20.33;5.97;;;;;;;1.14;100.00;101759.06;5949727;28;20028;-70
2024/01/13 03:05:54;;;;;;;12.80;5.57;;;;;;;1.11;100.00;101748.75;5954045;29;20074;-70
2024/01/13 03:08:50;;;;;;;11.63;4.10;;;;;;;1.10;100.00;101749.66;5941950;29;20051;-71
2024/01/13 03:11:45;;;;;;;16.20;4.60;;;;;;;1.18;100.00;101751.97;5954134;29;20385;-71
2024/01/13 03:14:40;;;;;;;14.80;5.53;;;;;;;1.16;100.00;101741.59;5946232;29;20286;-71
2024/01/13 03:17:36;;;;;;;11.53;4.33;;;;;;;1.19;100.00;101741.47;5947777;29;20070;-71
2024/01/13 03:20:32;;;;;;;10.50;3.92;;;;;;;1.16;100.00;101736.38;5942872;29;20404;-70
2024/01/13 03:23:27;;;;;;;11.33;3.70;;;;;;;1.12;100.00;101719.13;5948467;29;20129;-70
2024/01/13 03:26:22;;;;;;;13.40;4.47;;;;;;;1.09;100.00;101726.22;5942830;29;20424;-71
2024/01/13 03:29:17;;;;;;;11.03;4.20;;;;;;;1.14;100.00;101727.72;5954540;29;20032;-70
2024/01/13 03:32:13;;;;;;;10.47;3.97;;;;;;;1.07;100.00;101705.41;5951870;29;20272;-70
2024/01/13 03:35:08;;;;;;;12.48;4.15;;;;;;;1.10;100.00;101700.06;5953699;29;20031;-70
2024/01/13 03:38:04;;;;;;;10.10;3.75;;;;;;;1.09;100.00;101697.47;5940457;29;20115;-71
2024/01/13 03:40:59;;;;;;;10.70;3.72;;;;;;;1.12;100.00;101703.44;5948632;29;20403;-71
2024/01/13 03:43:57;;;;;;;12.87;3.43;;;;;;;1.11;100.00;101695.69;5944680;29;20059;-71
2024/01/13 03:46:52;;;;;;;10.77;3.63;;;;;;;1.07;100.00;101699.31;5943403;29;20126;-71
2024/01/13 03:49:48;;;;;;;9.60;4.03;;;;;;;1.07;100.00;101694.94;5942186;29;20040;-71
2024/01/13 03:52:43;;;;;;;9.10;3.75;;;;;;;1.13;100.00;101704.31;5945222;29;20359;-71
2024/01/13 03:55:38;;;;;;;8.87;3.63;;;;;;;1.05;100.00;101686.34;5952881;29;20043;-71
2024/01/13 03:58:35;;;;;;;12.53;3.63;;;;;;;1.15;100.00;101708.53;5941651;29;20120;-72
2024/01/13 04:01:30;;;;;;;8.88;3.67;;;;;;;1.11;100.00;101711.34;5952019;29;20031;-70
2024/01/13 04:04:25;;;;;;;10.57;3.53;;;;;;;1.13;100.00;101709.53;5944279;29;20032;-70
2024/01/13 04:07:21;;;;;;;9.80;4.17;;;;;;;1.06;100.00;101689.81;5953865;29;20039;-70
2024/01/13 04:10:16;;;;;;;9.80;3.20;;;;;;;1.07;100.00;101702.78;5942754;29;20369;-71
2024/01/13 04:13:13;;;;;;;8.03;3.43;;;;;;;1.11;100.00;101701.72;5941667;29;20035;-70
2024/01/13 04:16:08;;;;;;;12.57;3.67;;;;;;;1.10;100.00;101699.19;5958271;29;20747;-71
2024/01/13 04:19:03;;;;;;;11.32;3.95;;;;;;;1.02;100.00;101690.81;5958721;29;20081;-72
2024/01/13 04:21:58;;;;;;;10.73;3.77;;;;;;;0.99;100.00;101685.72;5946415;29;20115;-72
2024/01/13 04:24:54;;;;;;;8.30;3.63;;;;;;;0.99;100.00;101680.50;5947681;29;20040;-72
2024/01/13 04:27:52;;;;;;;9.20;3.30;;;;;;;1.05;100.00;101694.16;5955213;29;20043;-72
2024/01/13 04:30:48;;;;;;;7.53;2.95;;;;;;;1.06;100.00;101689.81;5948434;29;20127;-72
2024/01/13 04:33:44;;;;;;;8.93;2.60;;;;;;;1.07;100.00;101687.13;5953508;29;20439;-72
2024/01/13 04:36:39;;;;;;;9.83;4.17;;;;;;;0.99;100.00;101670.91;5955731;29;20032;-72
2024/01/13 04:39:34;;;;;;;9.47;3.33;;;;;;;1.04;100.00;101678.53;5949562;29;20028;-72
2024/01/13 04:42:31;;;;;;;7.37;3.80;;;;;;;0.98;100.00;101653.53;5946522;29;20088;-71
2024/01/13 04:45:26;;;;;;;9.20;3.50;;;;;;;0.95;100.00;101651.03;5955725;29;20463;-72
2024/01/13 04:48:21;;;;;;;7.10;3.00;;;;;;;1.01;100.00;101660.38;5953267;29;20032;-71
2024/01/13 04:51:17;;;;;;;8.63;3.20;;;;;;;0.94;100.00;101646.75;5945699;29;20044;-72
2024/01/13 04:54:12;;;;;;;9.77;3.20;;;;;;;1.01;100.00;101661.25;5957011;29;20035;-72
2024/01/13 04:57:07;;;;;;;5.47;2.07;;;;;;;1.06;100.00;101653.25;5953699;29;20043;-72
2024/01/13 05:00:04;;;;;;;6.57;2.60;;;;;;;1.02;100.00;101652.50;5954859;29;20035;-72
2024/01/13 05:03:01;;;;;;;7.55;2.67;;;;;;;1.02;100.00;101657.72;5951577;29;20028;-71
2024/01/13 05:05:56;;;;;;;9.10;2.80;;;;;;;0.94;100.00;101645.91;5948283;29;20570;-72
2024/01/13 05:08:51;;;;;;;5.50;2.03;;;;;;;0.96;100.00;101650.16;5948884;29;20027;-71
2024/01/13 05:11:47;;;;;;;4.20;1.97;;;;;;;0.99;100.00;101649.16;5947494;29;20024;-71
2024/01/13 05:14:43;;;;;;;3.73;1.30;;;;;;;1.00;100.00;101646.50;5945646;29;20771;-71
2024/01/13 05:17:39;;;;;;;6.18;2.17;;;;;;;1.01;100.00;101653.41;5954565;29;20290;-72
2024/01/13 05:20:34;;;;;;;7.10;2.80;;;;;;;0.94;100.00;101641.53;5946301;29;20024;-72
2024/01/13 05:23:29;;;;;;;5.03;1.95;;;;;;;1.00;100.00;101640.44;5956996;29;20063;-71
2024/01/13 05:26:25;;;;;;;4.97;2.00;;;;;;;0.94;100.00;101636.31;5949709;29;20052;-72
2024/01/13 05:29:20;;;;;;;5.73;1.87;;;;;;;0.95;100.00;101622.31;5953733;29;20032;-72
2024/01/13 05:32:15;;;;;;;5.10;1.47;;;;;;;0.95;100.00;101640.59;5957061;29;20793;-72
2024/01/13 05:35:11;;;;;;;4.22;1.70;;;;;;;0.96;100.00;101644.06;5957970;29;20428;-71
2024/01/13 05:38:06;;;;;;;8.13;2.00;;;;;;;0.88;100.00;101636.56;5947616;29;20059;-72
2024/01/13 05:41:01;;;;;;;8.07;2.00;;;;;;;0.90;100.00;101639.09;5954997;29;20046;-70
2024/01/13 05:43:57;;;;;;;4.75;1.63;;;;;;;0.94;100.00;101638.91;5943036;29;20047;-70
2024/01/13 05:46:53;;;;;;;4.30;1.90;;;;;;;0.91;100.00;101632.97;5941910;29;20463;-70
2024/01/13 05:49:49;;;;;;;4.65;1.55;;;;;;;0.89;100.00;101629.56;5957363;29;20027;-70
2024/01/13 05:52:44;;;;;;;6.22;2.03;;;;;;;0.85;100.00;101618.41;5957000;29;20031;-72
2024/01/13 05:55:40;;;;;;;5.57;2.03;;;;;;;0.89;100.00;101622.59;5953013;29;20039;-72
2024/01/13 05:58:35;;;;;;;4.60;1.77;;;;;;;0.86;100.00;101612.28;5956316;29;20138;-71
2024/01/13 06:01:31;;;;;;;5.43;1.95;;;;;;;0.89;100.00;101613.91;5955133;29;20865;-71
2024/01/13 06:04:26;;;;;;;6.75;1.90;;;;;;;0.80;100.00;101604.69;5947831;29;20036;-71
2024/01/13 06:07:21;;;;;;;6.87;2.37;;;;;;;0.88;100.00;101620.03;5953924;29;20088;-71
2024/01/13 06:10:17;;;;;;;8.73;2.23;;;;;;;0.90;100.00;101618.19;5956322;29;20519;-71
2024/01/13 06:13:12;;;;;;;6.53;2.05;;;;;;;0.80;100.00;101603.84;5956146;29;20031;-71
2024/01/13 06:16:08;;;;;;;6.43;2.20;;;;;;;0.82;100.00;101600.25;5952165;29;20122;-71
2024/01/13 06:19:05;;;;;;;5.70;2.58;;;;;;;0.83;100.00;101603.72;5940526;29;20028;-70
2024/01/13 06:22:00;;;;;;;4.75;1.90;;;;;;;0.84;100.00;101608.03;5948322;29;20032;-70
2024/01/13 06:24:57;;;;;;;7.17;2.30;;;;;;;0.82;100.00;101605.47;5947281;29;20083;-70
2024/01/13 06:27:52;;;;;;;4.47;1.90;;;;;;;0.86;100.00;101586.16;5959981;29;20341;-70
2024/01/13 06:30:47;;;;;;;4.83;1.93;;;;;;;0.87;100.00;101587.03;5950487;29;20467;-70
2024/01/13 06:33:43;;;;;;;7.10;2.33;;;;;;;0.89;100.00;101596.50;5950637;29;20538;-70
2024/01/13 06:36:38;;;;;;;6.37;2.47;;;;;;;0.85;100.00;101592.28;5949540;29;20040;-70
2024/01/13 06:39:33;;;;;;;4.73;1.80;;;;;;;0.90;100.00;101592.09;5944725;29;20040;-70
2024/01/13 06:42:29;;;;;;;5.07;2.20;;;;;;;0.89;100.00;101566.91;5952660;29;20423;-70
2024/01/13 06:45:24;;;;;;;8.67;2.70;;;;;;;0.86;100.00;101567.03;5952866;29;20042;-71
2024/01/13 06:48:19;;;;;;;4.97;1.87;;;;;;;0.85;100.00;101560.13;5942350;29;20043;-71
2024/01/13 06:51:15;;;;;;;4.87;2.07;;;;;;;0.85;100.00;101549.69;5950275;29;20122;-71
2024/01/13 06:54:10;;;;;;;5.90;2.30;;;;;;;0.84;100.00;101542.78;5939895;29;20035;-71
2024/01/13 06:57:05;;;;;;;5.67;2.20;;;;;;;0.85;100.00;101537.47;5952138;29;20830;-71
2024/01/13 07:00:00;;;;;;;6.13;2.10;;;;;;;0.89;100.00;101539.06;5945728;29;20122;-71
2024/01/13 07:02:56;;;;;;;6.17;2.67;;;;;;;0.88;100.00;101524.31;5942418;28;20028;-71
2024/01/13 07:05:51;;;;;;;7.17;2.30;;;;;;;0.85;100.00;101516.59;5953416;29;20179;-71
2024/01/13 07:08:47;;;;;;;5.80;2.03;;;;;;;0.85;100.00;101511.38;5951387;29;20038;-71
2024/01/13 07:11:42;;;;;;;5.45;2.40;;;;;;;0.85;100.00;101505.28;5952759;29;20549;-71
2024/01/13 07:14:38;;;;;;;7.53;3.17;;;;;;;0.89;100.00;101512.09;5945899;29;20075;-71
2024/01/13 07:17:34;;;;;;;5.93;2.63;;;;;;;0.89;100.00;101502.50;5949822;29;20032;-71
2024/01/13 07:20:29;;;;;;;8.48;2.92;;;;;;;0.84;100.00;101486.19;5954485;29;20032;-71
2024/01/13 07:23:24;;;;;;;6.33;2.60;;;;;;;0.87;100.00;101488.66;5949651;29;20043;-71
2024/01/13 07:26:20;;;;;;;8.02;3.08;;;;;;;0.81;100.00;101468.06;5953265;29;20097;-71
2024/01/13 07:29:15;;;;;;;6.53;2.40;;;;;;;0.83;100.00;101457.53;5951268;29;20054;-72
2024/01/13 07:32:12;;;;;;;7.07;2.63;;;;;;;0.86;100.00;101470.47;5952889;29;20028;-71
2024/01/13 07:35:08;;;;;;;5.20;2.30;;;;;;;0.85;100.00;101464.38;5953882;29;20031;-71
2024/01/13 07:38:04;;;;;;;8.55;3.10;;;;;;;0.86;100.00;101466.09;5952411;29;20046;-71
2024/01/13 07:40:59;;;;;;;6.00;2.20;;;;;;;0.88;100.00;101472.09;5947052;29;20086;-71
2024/01/13 07:43:54;;;;;;;5.43;2.27;;;;;;;0.83;100.00;101468.84;5947113;29;20103;-71
2024/01/13 07:46:50;;;;;;;6.77;2.97;;;;;;;0.83;100.00;101466.22;5945493;29;20056;-71
2024/01/13 07:49:45;;;;;;;5.03;2.00;;;;;;;0.83;100.00;101458.41;5957596;29;20287;-71
2024/01/13 07:52:40;;;;;;;5.43;1.57;;;;;;;0.87;100.00;101472.16;5954911;29;20044;-71
2024/01/13 07:55:35;;;;;;;5.07;2.00;;;;;;;0.89;100.00;101476.41;5949704;29;20271;-71
2024/01/13 07:58:32;;;;;;;5.07;2.13;;;;;;;0.90;100.00;101477.22;5956643;29;20419;-71
2024/01/13 08:01:27;;;;;;;5.50;1.55;;;;;;;0.92;100.00;101478.03;5956209;29;20028;-71
2024/01/13 08:04:23;;;;;;;4.33;1.53;;;;;;;0.89;100.00;101460.75;5949669;29;20502;-72
2024/01/13 08:57:31;;;;;;;2.17;1.10;;;;;;;1.20;100.00;101431.50;5946080;29;20036;-72
2024/01/13 09:00:28;;;;;;;3.10;1.10;;;;;;;1.23;100.00;101417.44;5945486;29;20040;-72
2024/01/13 09:03:25;;;;;;;5.40;1.35;;;;;;;1.32;100.00;101401.38;5959556;29;20487;-72
2024/01/13 09:06:21;;;;;;;2.45;1.05;;;;;;;1.38;100.00;101403.72;5955643;29;20464;-71
2024/01/13 09:09:16;;;;;;;2.28;1.20;;;;;;;1.47;100.00;101393.66;5957079;29;20039;-71
2024/01/13 09:12:12;;;;;;;2.30;1.10;;;;;;;1.59;100.00;101373.94;5955079;29;20043;-72
2024/01/13 09:15:09;;;;;;;2.83;1.10;;;;;;;1.67;100.00;101395.34;5958978;29;20080;-71
2024/01/13 09:18:06;;;;;;;4.80;1.30;;;;;;;1.72;100.00;101402.03;5947254;29;20039;-71
2024/01/13 09:21:02;;;;;;;2.00;0.68;;;;;;;1.79;100.00;101402.63;5952558;29;20070;-71
2024/01/13 09:23:58;;;;;;;2.63;1.17;;;;;;;1.79;100.00;101402.63;5953654;29;20032;-71
2024/01/13 09:26:55;;;;;;;2.88;0.98;;;;;;;1.86;100.00;101377.84;5976391;23;20055;-71
2024/01/13 09:29:50;;;;;;;1.58;0.88;;;;;;;1.79;100.00;101364.22;5955995;29;20042;-71
2024/01/13 09:32:46;;;;;;;2.07;1.00;;;;;;;1.77;100.00;101352.16;5950394;29;20036;-71
2024/01/13 09:35:41;;;;;;;2.57;1.10;;;;;;;1.77;100.00;101344.31;5955129;29;20071;-71
2024/01/13 09:38:36;;;;;;;2.70;1.20;;;;;;;1.77;100.00;101358.22;5954271;29;20071;-70
2024/01/13 09:41:33;;;;;;;2.67;1.20;;;;;;;1.75;100.00;101341.78;5954677;29;20396;-71
2024/01/13 09:44:29;;;;;;;2.88;1.08;;;;;;;1.80;100.00;101358.09;5957183;29;20115;-71
2024/01/13 09:47:25;;;;;;;3.38;1.05;;;;;;;1.82;100.00;101354.56;5955855;29;20039;-71
2024/01/13 09:50:20;;;;;;;3.03;1.13;;;;;;;1.77;100.00;101337.31;5955412;29;20476;-71
2024/01/13 09:53:22;;;;;;;2.70;1.33;;;;;;;1.72;100.00;101320.16;5954869;29;20516;-72
2024/01/13 09:56:22;;;;;;;4.18;1.80;;;;;;;1.78;100.00;101349.47;5950196;29;20283;-72
2024/01/13 09:59:21;;;;;;;2.35;1.33;;;;;;;1.81;100.00;101343.25;5952904;29;20035;-72
2024/01/13 10:02:16;;;;;;;3.65;1.63;;;;;;;1.79;100.00;101345.09;5947890;29;20040;-71
2024/01/13 10:05:11;;;;;;;4.88;2.13;;;;;;;1.86;100.00;101353.47;5954783;29;20181;-72
2024/01/13 10:08:07;;;;;;;7.37;2.60;;;;;;;1.89;100.00;101363.78;5953239;29;20494;-72
2024/01/13 10:11:02;;;;;;;5.85;2.10;;;;;;;1.97;100.00;101370.34;5949463;29;20028;-71
2024/01/13 10:14:02;;;;;;;4.60;2.33;;;;;;;2.07;100.00;101370.72;5949398;29;20050;-71
2024/01/13 10:17:04;;;;;;;6.57;2.30;;;;;;;2.16;100.00;101365.88;5950085;29;20028;-72
2024/01/13 10:19:59;;;;;;;4.63;2.00;;;;;;;2.06;100.00;101375.13;5998684;23;20133;-71
2024/01/13 10:22:55;;;;;;;6.25;3.08;;;;;;;1.98;100.00;101351.13;5991334;28;20035;-72
2024/01/13 10:25:50;;;;;;;7.67;3.23;;;;;;;2.04;100.00;101350.78;5990699;28;20074;-72
2024/01/13 10:28:46;;;;;;;6.53;2.63;;;;;;;2.11;100.00;101335.66;5999990;28;20434;-72
2024/01/13 10:31:41;;;;;;;7.07;3.50;;;;;;;2.13;100.00;101318.94;5997603;28;20447;-72
2024/01/13 10:34:37;;;;;;;7.07;2.90;;;;;;;2.14;100.00;101314.56;5999301;28;20477;-72
2024/01/13 10:37:34;;;;;;;9.90;3.40;;;;;;;2.19;100.00;101315.19;5999983;28;20278;-73
2024/01/13 10:40:30;;;;;;;5.15;2.47;;;;;;;2.09;100.00;101291.25;5994620;28;20474;-72
2024/01/13 10:43:26;;;;;;;5.50;2.17;;;;;;;2.16;100.00;101297.03;6000761;28;20066;-72
2024/01/13 10:46:23;;;;;;;5.38;2.35;;;;;;;2.17;100.00;101291.72;5997061;28;20030;-71
2024/01/13 10:49:28;;;;;;;7.00;2.88;;;;;;;2.17;100.00;101289.13;5988186;28;20070;-72
2024/01/13 10:52:41;;;;;;;6.60;2.78;;;;;;;2.06;100.00;101280.97;6000329;28;20482;-72
2024/01/13 10:55:37;;;;;;;7.15;2.63;;;;;;;2.14;100.00;101283.19;5993692;28;20030;-72
2024/01/13 10:58:33;;;;;;;6.63;2.95;;;;;;;2.12;100.00;101264.94;5995722;28;20089;-72
2024/01/13 11:01:29;;;;;;;7.38;3.13;;;;;;;2.22;100.00;101260.94;5994958;28;20038;-72
2024/01/13 11:04:24;;;;;;;6.80;2.70;;;;;;;2.24;100.00;101248.63;5999429;28;20533;-72
2024/01/13 11:07:20;;;;;;;6.55;3.17;;;;;;;2.24;100.00;101238.16;5998505;28;20448;-72
2024/01/13 11:10:20;;;;;;;7.43;3.03;;;;;;;2.25;100.00;101232.00;5997355;28;20043;-72
2024/01/13 11:13:27;;;;;;;6.65;2.92;;;;;;;2.28;100.00;101229.19;5998793;28;20282;-72
2024/01/13 11:16:26;;;;;;;5.57;2.40;;;;;;;2.23;100.00;101218.13;5993687;28;20035;-73
2024/01/13 11:19:22;;;;;;;6.38;3.13;;;;;;;2.32;100.00;101228.13;5992166;28;20035;-72
2024/01/13 11:22:36;;;;;;;9.82;3.53;;;;;;;2.30;100.00;101206.44;5997568;28;20605;-73
2024/01/13 11:25:34;;;;;;;6.30;3.22;;;;;;;2.31;100.00;101205.50;5997659;28;20106;-72
2024/01/13 11:28:52;;;;;;;6.82;3.25;;;;;;;2.30;100.00;101201.22;5993386;28;20173;-72
2024/01/13 11:31:53;;;;;;;6.80;3.13;;;;;;;2.29;100.00;101178.56;5993885;28;20075;-72
2024/01/13 11:34:49;;;;;;;6.97;3.08;;;;;;;2.30;100.00;101167.19;5994936;28;20034;-72
2024/01/13 11:37:44;;;;;;;6.72;2.92;;;;;;;2.43;100.00;101164.75;6019094;23;20043;-72
2024/01/13 11:40:47;;;;;;;6.80;3.23;;;;;;;2.38;100.00;101154.53;5972816;28;20129;-72
2024/01/13 11:43:44;;;;;;;7.28;3.13;;;;;;;2.48;100.00;101148.78;5982844;28;20270;-72
2024/01/13 11:46:56;;;;;;;7.55;2.90;;;;;;;2.49;100.00;101147.88;5983865;28;20023;-72
2024/01/13 11:49:52;;;;;;;6.97;3.05;;;;;;;2.38;100.00;101153.69;5969397;28;20061;-72
2024/01/13 11:52:47;;;;;;;8.23;3.13;;;;;;;2.39;100.00;101150.97;5971551;28;20043;-72
2024/01/13 11:55:43;;;;;;;7.90;2.83;;;;;;;2.33;100.00;101148.72;5979797;28;20031;-72
2024/01/13 11:58:39;;;;;;;6.33;2.57;;;;;;;2.31;100.00;101123.56;5982043;28;20349;-71
2024/01/13 12:01:35;;;;;;;7.90;3.40;;;;;;;2.19;100.00;101132.91;5988697;28;20055;-71
2024/01/13 12:04:32;;;;;;;6.97;3.30;;;;;;;2.19;100.00;101137.31;5977397;28;20106;-72
2024/01/13 12:07:29;;;;;;;7.07;2.83;;;;;;;2.13;100.00;101141.09;5994484;28;20082;-72
2024/01/13 12:10:24;;;;;;;7.15;3.15;;;;;;;1.99;100.00;101127.91;5987981;28;20176;-72
2024/01/13 12:13:21;;;;;;;7.30;3.23;;;;;;;1.97;100.00;101114.06;5988993;28;20809;-71
2024/01/13 12:16:16;;;;;;;7.32;2.97;;;;;;;1.97;100.00;101114.06;5976293;28;20492;-71
2024/01/13 12:19:11;;;;;;;7.93;3.50;;;;;;;1.97;100.00;101111.44;5981772;28;20038;-72
2024/01/13 12:22:08;;;;;;;6.27;2.80;;;;;;;1.97;100.00;101111.44;5979028;28;20122;-71
2024/01/13 12:25:03;;;;;;;7.03;3.08;;;;;;;1.98;100.00;101113.16;5982218;28;20047;-71
2024/01/13 12:27:59;;;;;;;7.25;3.15;;;;;;;1.89;100.00;101095.34;5974620;28;20039;-72
2024/01/13 12:30:54;;;;;;;5.75;2.75;;;;;;;1.93;100.00;101085.56;5979361;28;20050;-72
2024/01/13 12:33:49;;;;;;;6.55;2.78;;;;;;;1.97;100.00;101087.91;5975915;28;20447;-73
2024/01/13 12:36:45;;;;;;;6.40;3.00;;;;;;;1.95;100.00;101070.63;5978987;28;20039;-72
2024/01/13 12:39:41;;;;;;;6.07;2.87;;;;;;;1.95;100.00;101079.31;5980849;28;20054;-71
2024/01/13 12:42:40;;;;;;;6.63;3.15;;;;;;;1.99;100.00;101074.75;5976112;28;20358;-72
2024/01/13 12:45:36;;;;;;;6.75;2.88;;;;;;;1.99;100.00;101070.38;5973086;28;20046;-72
2024/01/13 12:48:33;;;;;;;8.77;3.28;;;;;;;1.98;100.00;101068.69;5975486;28;20562;-71
2024/01/13 12:51:33;;;;;;;6.72;2.90;;;;;;;2.03;100.00;101063.22;5968242;28;20082;-72
2024/01/13 12:54:28;;;;;;;6.88;3.22;;;;;;;2.03;100.00;101056.22;5971820;28;20035;-72
2024/01/13 12:57:24;;;;;;;7.10;2.97;;;;;;;2.05;100.00;101054.34;5971780;28;20086;-72
2024/01/13 13:00:19;;;;;;;7.33;2.97;;;;;;;2.04;100.00;101052.66;5973484;28;20269;-72
2024/01/13 13:03:15;;;;;;;7.55;3.40;;;;;;;2.04;100.00;101031.72;5988120;28;20069;-72
2024/01/13 13:06:10;;;;;;;8.50;3.03;;;;;;;2.06;100.00;101035.13;5980646;28;20110;-72
2024/01/13 13:09:09;;;;;;;10.37;3.57;;;;;;;2.07;100.00;101036.78;5988191;28;20030;-71
2024/01/13 13:12:05;;;;;;;8.32;3.20;;;;;;;2.06;100.00;101029.91;5988106;28;20031;-71
2024/01/13 13:15:00;;;;;;;9.00;4.00;;;;;;;2.06;100.00;101029.06;5991331;28;20093;-71
2024/01/13 13:17:56;;;;;;;7.93;3.93;;;;;;;2.07;100.00;101023.72;5981647;28;20042;-71
2024/01/13 13:20:52;;;;;;;10.32;4.13;;;;;;;2.03;100.00;101009.16;5989461;28;20038;-72
2024/01/13 13:23:47;;;;;;;10.13;4.43;;;;;;;1.98;100.00;101010.31;5995370;28;20046;-72
2024/01/13 13:26:43;;;;;;;12.53;4.90;;;;;;;2.03;100.00;101009.16;5988902;28;20035;-72
2024/01/13 13:29:39;;;;;;;10.70;4.72;;;;;;;2.03;100.00;101011.75;5976869;28;20036;-72
2024/01/13 13:32:35;;;;;;;15.73;5.57;;;;;;;1.96;100.00;101007.78;5981612;28;20035;-71
2024/01/13 13:35:31;;;;;;;15.88;5.88;;;;;;;1.92;100.00;100995.81;5972898;28;20027;-71
2024/01/13 13:38:27;;;;;;;15.30;6.63;;;;;;;1.91;100.00;100991.50;5979475;28;20601;-71
2024/01/13 13:41:23;;;;;;;13.23;5.38;;;;;;;1.98;100.00;100984.19;5986233;28;20055;-71
2024/01/13 13:44:18;;;;;;;16.93;6.73;;;;;;;1.97;100.00;100982.47;5982895;28;20410;-71
2024/01/13 13:47:13;;;;;;;17.97;6.13;;;;;;;1.96;100.00;100967.75;5976935;28;20055;-71
2024/01/13 13:50:09;;;;;;;16.07;6.93;;;;;;;1.99;100.00;100975.38;5987385;28;20468;-72
2024/01/13 13:53:05;;;;;;;13.25;6.28;;;;;;;1.92;100.00;100969.66;5995241;28;20302;-71
2024/01/13 13:56:02;;;;;;;19.75;7.30;;;;;;;1.96;100.00;100976.41;5985631;28;20034;-71
2024/01/13 13:58:58;;;;;;;18.38;7.45;;;;;;;1.89;100.00;100963.75;5985582;28;20166;-71
2024/01/13 14:01:53;;;;;;;20.83;7.90;;;;;;;1.85;100.00;100963.06;5977114;28;20027;-71
2024/01/13 14:04:48;;;;;;;25.50;8.13;;;;;;;1.91;100.00;100962.75;5975972;28;20026;-71
2024/01/13 14:07:44;;;;;;;24.53;9.20;;;;;;;1.86;100.00;100956.94;5970607;28;20477;-71
2024/01/13 14:10:41;;;;;;;25.73;9.53;;;;;;;1.87;100.00;100953.41;5984088;28;20106;-71
2024/01/13 14:13:36;;;;;;;26.15;8.52;;;;;;;1.78;100.00;100940.81;5980449;28;20078;-72
2024/01/13 14:16:32;;;;;;;27.57;10.37;;;;;;;1.77;100.00;100936.50;5979431;28;20051;-71
2024/01/13 14:19:27;;;;;;;26.60;9.63;;;;;;;1.77;100.00;100929.53;5995725;28;20027;-71
2024/01/13 14:22:22;;;;;;;26.57;10.20;;;;;;;1.77;100.00;100926.06;5976617;28;20044;-71
2024/01/13 14:25:18;;;;;;;25.00;9.40;;;;;;;1.73;100.00;100919.34;5988878;28;20030;-71